createdAt,value
2018-06-03T00:00:09.540Z,19.92
2018-06-03T00:02:37.002Z,19.70
2018-06-03T00:05:04.453Z,19.75
2018-06-03T00:07:31.922Z,19.70
2018-06-03T00:09:59.372Z,19.67
2018-06-03T00:12:26.829Z,19.78
2018-06-03T00:14:54.266Z,19.63
2018-06-03T00:17:21.713Z,19.66
2018-06-03T00:19:49.165Z,19.39
2018-06-03T00:22:35.477Z,19.37
2018-06-03T00:25:02.933Z,19.53
2018-06-03T00:27:30.386Z,19.48
2018-06-03T00:29:57.825Z,19.50
2018-06-03T00:32:25.279Z,19.34
2018-06-03T00:34:52.725Z,19.17
2018-06-03T00:37:20.249Z,19.21
2018-06-03T00:39:47.765Z,19.22
2018-06-03T00:42:15.213Z,19.25
2018-06-03T00:44:42.686Z,19.23
2018-06-03T00:47:10.120Z,19.23
2018-06-03T00:49:37.589Z,19.23
2018-06-03T00:52:05.044Z,18.98
2018-06-03T00:54:32.511Z,19.15
2018-06-03T00:57:07.920Z,19.22
2018-06-03T00:59:35.378Z,19.29
2018-06-03T01:02:02.855Z,19.28
2018-06-03T01:04:30.418Z,19.27
2018-06-03T01:06:57.897Z,19.18
2018-06-03T01:09:25.410Z,19.08
2018-06-03T01:11:52.883Z,19.07
2018-06-03T01:14:20.428Z,18.96
2018-06-03T01:16:47.886Z,18.98
2018-06-03T01:19:15.601Z,18.86
2018-06-03T01:21:43.104Z,18.88
2018-06-03T01:24:10.653Z,19.19
2018-06-03T01:26:38.122Z,19.11
2018-06-03T01:29:05.693Z,19.08
2018-06-03T01:31:33.157Z,19.19
2018-06-03T01:34:00.636Z,19.04
2018-06-03T01:36:28.069Z,19.17
2018-06-03T01:38:55.550Z,19.17
2018-06-03T01:41:23.097Z,19.25
2018-06-03T01:43:50.637Z,19.26
2018-06-03T01:46:18.087Z,19.11
2018-06-03T01:48:45.971Z,19.18
2018-06-03T01:51:13.460Z,19.06
2018-06-03T01:53:40.933Z,19.05
2018-06-03T01:56:08.490Z,19.01
2018-06-03T01:58:35.954Z,18.97
2018-06-03T02:01:03.432Z,19.06
2018-06-03T02:03:30.865Z,19.08
2018-06-03T02:05:58.304Z,19.13
2018-06-03T02:08:25.840Z,18.83
2018-06-03T02:10:53.279Z,18.43
2018-06-03T02:13:20.748Z,18.81
2018-06-03T02:15:48.212Z,18.85
2018-06-03T02:18:15.703Z,18.93
2018-06-03T02:20:43.187Z,19.13
2018-06-03T02:23:10.648Z,18.99
2018-06-03T02:25:38.144Z,18.90
2018-06-03T02:28:05.626Z,18.81
2018-06-03T02:30:33.091Z,18.66
2018-06-03T02:33:00.537Z,18.60
2018-06-03T02:35:28.063Z,18.52
2018-06-03T02:37:55.622Z,18.55
2018-06-03T02:40:23.285Z,18.34
2018-06-03T02:42:50.741Z,18.24
2018-06-03T02:45:18.189Z,18.32
2018-06-03T02:47:45.652Z,18.11
2018-06-03T02:50:13.121Z,18.28
2018-06-03T02:52:40.599Z,18.15
2018-06-03T02:55:08.068Z,18.19
2018-06-03T02:57:35.536Z,18.13
2018-06-03T03:00:03.118Z,18.08
2018-06-03T03:02:30.600Z,18.20
2018-06-03T03:04:58.545Z,18.42
2018-06-03T03:07:26.140Z,18.38
2018-06-03T03:09:53.594Z,18.37
2018-06-03T03:12:21.120Z,18.26
2018-06-03T03:14:48.585Z,18.36
2018-06-03T03:17:16.045Z,18.41
2018-06-03T03:19:43.493Z,18.55
2018-06-03T03:22:10.952Z,18.45
2018-06-03T03:24:38.413Z,18.19
2018-06-03T03:27:05.880Z,18.31
2018-06-03T03:29:33.369Z,18.49
2018-06-03T03:32:00.837Z,18.44
2018-06-03T03:34:28.326Z,18.68
2018-06-03T03:36:55.786Z,18.55
2018-06-03T03:39:23.231Z,18.48
2018-06-03T03:41:50.696Z,18.51
2018-06-03T03:44:18.168Z,18.50
2018-06-03T03:46:45.641Z,18.74
2018-06-03T03:49:13.116Z,18.75
2018-06-03T03:51:40.581Z,18.74
2018-06-03T03:54:08.034Z,18.89
2018-06-03T03:56:35.557Z,18.79
2018-06-03T03:59:03.012Z,18.77
2018-06-03T04:01:30.490Z,18.87
2018-06-03T04:03:57.942Z,18.76
2018-06-03T04:06:25.402Z,18.87
2018-06-03T04:08:52.866Z,19.00
2018-06-03T04:11:20.323Z,19.04
2018-06-03T04:13:47.773Z,19.14
2018-06-03T04:16:15.225Z,18.96
2018-06-03T04:18:42.700Z,18.97
2018-06-03T04:21:10.141Z,18.78
2018-06-03T04:23:37.619Z,18.78
2018-06-03T04:26:05.080Z,19.39
2018-06-03T04:28:32.553Z,19.45
2018-06-03T04:31:00.100Z,19.85
2018-06-03T04:33:27.590Z,19.45
2018-06-03T04:35:55.064Z,19.64
2018-06-03T04:38:22.544Z,19.67
2018-06-03T04:40:50.009Z,19.98
2018-06-03T04:43:17.583Z,20.47
2018-06-03T04:45:45.062Z,20.53
2018-06-03T04:48:12.548Z,20.61
2018-06-03T04:50:40.052Z,21.03
2018-06-03T04:53:07.489Z,21.63
2018-06-03T04:55:34.936Z,21.76
2018-06-03T04:58:02.421Z,21.22
2018-06-03T05:00:29.889Z,21.54
2018-06-03T05:02:57.369Z,21.44
2018-06-03T05:05:24.848Z,21.61
2018-06-03T05:07:52.302Z,21.71
2018-06-03T05:10:19.806Z,21.75
2018-06-03T05:12:47.258Z,22.31
2018-06-03T05:15:14.813Z,22.24
2018-06-03T05:17:42.277Z,21.97
2018-06-03T05:20:09.724Z,22.25
2018-06-03T05:22:37.183Z,22.36
2018-06-03T05:25:04.658Z,22.64
2018-06-03T05:27:32.142Z,22.44
2018-06-03T05:29:59.655Z,22.67
2018-06-03T05:32:27.220Z,22.47
2018-06-03T05:34:54.753Z,22.75
2018-06-03T05:37:22.208Z,22.68
2018-06-03T05:39:49.654Z,22.44
2018-06-03T05:42:17.122Z,22.36
2018-06-03T05:44:44.580Z,22.69
2018-06-03T05:47:12.036Z,22.88
2018-06-03T05:49:39.489Z,23.01
2018-06-03T05:52:06.974Z,23.22
2018-06-03T05:54:35.268Z,23.03
2018-06-03T05:57:02.743Z,23.14
2018-06-03T05:59:30.234Z,23.04
2018-06-03T06:01:57.729Z,22.12
2018-06-03T06:04:25.317Z,22.55
2018-06-03T06:06:52.877Z,22.21
2018-06-03T06:09:20.350Z,22.41
2018-06-03T06:11:47.843Z,22.16
2018-06-03T06:14:15.324Z,22.24
2018-06-03T06:16:43.970Z,22.06
2018-06-03T06:19:12.666Z,22.63
2018-06-03T06:21:40.178Z,22.68
2018-06-03T06:24:07.730Z,22.50
2018-06-03T06:26:35.189Z,22.69
2018-06-03T06:29:02.722Z,22.92
2018-06-03T06:31:30.190Z,22.77
2018-06-03T06:33:57.742Z,23.06
2018-06-03T06:36:25.393Z,22.92
2018-06-03T06:38:57.370Z,23.07
2018-06-03T06:41:24.843Z,23.08
2018-06-03T06:43:52.299Z,23.07
2018-06-03T06:46:19.769Z,23.17
2018-06-03T06:48:47.250Z,23.51
2018-06-03T06:51:14.751Z,23.39
2018-06-03T06:53:42.325Z,23.28
2018-06-03T06:56:09.787Z,23.77
2018-06-03T06:58:37.236Z,24.40
2018-06-03T07:01:04.684Z,24.45
2018-06-03T07:03:32.242Z,24.38
2018-06-03T07:05:59.711Z,24.12
2018-06-03T07:08:27.162Z,25.09
2018-06-03T07:10:54.612Z,24.94
2018-06-03T07:13:22.067Z,24.74
2018-06-03T07:15:49.553Z,24.89
2018-06-03T07:18:17.047Z,24.89
2018-06-03T07:20:44.538Z,24.34
2018-06-03T07:23:12.029Z,25.08
2018-06-03T07:25:39.482Z,25.29
2018-06-03T07:28:06.955Z,24.78
2018-06-03T07:30:34.418Z,24.75
2018-06-03T07:33:01.974Z,25.47
2018-06-03T07:35:29.450Z,25.60
2018-06-03T07:37:56.992Z,25.70
2018-06-03T07:40:24.454Z,25.67
2018-06-03T07:42:51.961Z,25.88
2018-06-03T07:45:19.419Z,25.35
2018-06-03T07:47:46.872Z,25.16
2018-06-03T07:50:14.330Z,25.71
2018-06-03T07:52:41.834Z,25.63
2018-06-03T07:55:09.418Z,26.28
2018-06-03T07:57:36.911Z,26.21
2018-06-03T08:00:04.373Z,26.28
2018-06-03T08:02:31.817Z,26.16
2018-06-03T08:04:59.285Z,26.32
2018-06-03T08:07:26.767Z,25.60
2018-06-03T08:09:54.352Z,26.24
2018-06-03T08:12:21.884Z,26.37
2018-06-03T08:14:49.412Z,26.38
2018-06-03T08:17:16.896Z,26.16
2018-06-03T08:19:44.368Z,26.49
2018-06-03T08:22:12.420Z,26.19
2018-06-03T08:24:39.978Z,26.75
2018-06-03T08:27:07.440Z,27.03
2018-06-03T08:29:34.913Z,27.26
2018-06-03T08:32:02.385Z,26.37
2018-06-03T08:34:29.857Z,26.83
2018-06-03T08:36:57.376Z,27.14
2018-06-03T08:39:24.839Z,27.03
2018-06-03T08:41:54.412Z,26.70
2018-06-03T08:44:21.870Z,27.27
2018-06-03T08:46:49.363Z,27.35
2018-06-03T08:49:16.887Z,27.46
2018-06-03T08:51:44.382Z,27.46
2018-06-03T08:54:11.844Z,27.52
2018-06-03T08:56:39.296Z,28.06
2018-06-03T08:59:06.858Z,28.03
2018-06-03T09:01:34.301Z,28.17
2018-06-03T09:04:01.791Z,28.31
2018-06-03T09:06:29.243Z,28.56
2018-06-03T09:08:56.758Z,28.76
2018-06-03T09:11:24.206Z,28.43
2018-06-03T09:13:51.661Z,27.47
2018-06-03T09:16:19.143Z,28.31
2018-06-03T09:18:46.668Z,28.12
2018-06-03T09:21:14.070Z,28.81
2018-06-03T09:23:41.578Z,29.03
2018-06-03T09:26:09.053Z,29.45
2018-06-03T09:28:36.514Z,29.35
2018-06-03T09:31:05.947Z,28.58
2018-06-03T09:33:33.488Z,29.08
2018-06-03T09:36:01.052Z,28.64
2018-06-03T09:38:28.538Z,29.11
2018-06-03T09:40:56.006Z,29.11
2018-06-03T09:43:23.518Z,29.22
2018-06-03T09:45:50.956Z,29.34
2018-06-03T09:48:18.416Z,29.38
2018-06-03T09:50:45.909Z,29.82
2018-06-03T09:53:23.633Z,29.55
2018-06-03T09:55:51.157Z,29.36
2018-06-03T09:58:18.630Z,29.56
2018-06-03T10:00:46.108Z,29.79
2018-06-03T10:03:14.192Z,29.35
2018-06-03T10:05:41.696Z,29.22
2018-06-03T10:08:09.158Z,30.09
2018-06-03T10:10:36.710Z,29.04
2018-06-03T10:13:04.260Z,29.50
2018-06-03T10:15:31.721Z,29.65
2018-06-03T10:17:59.280Z,30.07
2018-06-03T10:20:26.749Z,29.94
2018-06-03T10:22:54.178Z,30.25
2018-06-03T10:25:21.650Z,29.82
2018-06-03T10:27:49.101Z,30.55
2018-06-03T10:30:16.559Z,31.21
2018-06-03T10:32:44.021Z,31.54
2018-06-03T10:35:11.576Z,31.41
2018-06-03T10:37:39.036Z,31.99
2018-06-03T10:40:06.604Z,31.83
2018-06-03T10:42:34.223Z,31.53
2018-06-03T10:45:01.733Z,31.42
2018-06-03T10:47:29.289Z,31.62
2018-06-03T10:49:56.752Z,32.01
2018-06-03T10:52:24.221Z,32.04
2018-06-03T10:54:51.685Z,32.17
2018-06-03T10:57:19.151Z,31.27
2018-06-03T10:59:46.658Z,31.97
2018-06-03T11:02:14.204Z,32.12
2018-06-03T11:04:41.640Z,32.26
2018-06-03T11:07:09.096Z,31.89
2018-06-03T11:09:36.565Z,31.89
2018-06-03T11:12:04.054Z,31.93
2018-06-03T11:14:31.491Z,31.59
2018-06-03T11:16:58.952Z,31.77
2018-06-03T11:19:26.429Z,31.82
2018-06-03T11:21:53.906Z,31.84
2018-06-03T11:24:21.347Z,32.27
2018-06-03T11:26:48.882Z,31.86
2018-06-03T11:29:16.446Z,32.33
2018-06-03T11:31:43.971Z,32.43
2018-06-03T11:34:11.433Z,32.11
2018-06-03T11:36:38.899Z,32.98
2018-06-03T11:39:06.333Z,33.50
2018-06-03T11:41:33.790Z,34.49
2018-06-03T11:44:01.260Z,35.20
2018-06-03T11:46:28.715Z,35.45
2018-06-03T11:48:56.260Z,35.38
2018-06-03T11:51:23.732Z,34.82
2018-06-03T11:53:51.178Z,34.19
2018-06-03T11:56:18.621Z,34.58
2018-06-03T11:58:49.859Z,33.62
2018-06-03T12:01:17.392Z,36.56
2018-06-03T12:03:44.861Z,37.37
2018-06-03T12:06:12.408Z,39.44
2018-06-03T12:08:39.988Z,40.85
2018-06-03T12:11:07.691Z,42.30
2018-06-03T12:13:35.149Z,41.59
2018-06-03T12:16:02.608Z,38.71
2018-06-03T12:18:30.041Z,42.25
2018-06-03T12:20:57.523Z,41.94
2018-06-03T12:23:25.011Z,41.64
2018-06-03T12:25:52.568Z,43.43
2018-06-03T12:28:20.068Z,43.27
2018-06-03T12:30:47.560Z,44.63
2018-06-03T12:33:15.051Z,44.02
2018-06-03T12:35:42.503Z,43.96
2018-06-03T12:38:09.953Z,41.39
2018-06-03T12:40:37.428Z,39.27
2018-06-03T12:43:04.927Z,38.17
2018-06-03T12:45:32.383Z,38.13
2018-06-03T12:47:59.834Z,38.18
2018-06-03T12:50:27.310Z,38.08
2018-06-03T12:52:54.775Z,38.54
2018-06-03T12:55:22.397Z,38.84
2018-06-03T12:57:49.846Z,38.93
2018-06-03T13:00:17.353Z,39.47
2018-06-03T13:02:44.849Z,38.90
2018-06-03T13:05:12.472Z,38.25
2018-06-03T13:07:39.969Z,39.06
2018-06-03T13:10:07.413Z,40.43
2018-06-03T13:13:06.201Z,40.64
2018-06-03T13:15:34.486Z,42.06
2018-06-03T13:18:02.834Z,42.22
2018-06-03T13:20:31.206Z,40.97
2018-06-03T13:22:59.558Z,41.55
2018-06-03T13:25:27.879Z,40.00
2018-06-03T13:27:56.267Z,39.46
2018-06-03T13:30:24.619Z,40.02
2018-06-03T13:32:52.934Z,41.15
2018-06-03T13:35:21.258Z,43.28
2018-06-03T13:37:49.512Z,45.55
2018-06-03T13:40:17.803Z,42.79
2018-06-03T13:42:46.169Z,43.36
2018-06-03T13:45:14.610Z,43.80
2018-06-03T13:47:42.974Z,45.05
2018-06-03T13:50:11.224Z,43.67
2018-06-03T13:52:39.649Z,45.47
2018-06-03T13:55:07.966Z,46.80
2018-06-03T13:57:36.343Z,45.87
2018-06-03T14:00:05.073Z,46.50
2018-06-03T14:02:33.410Z,46.82
2018-06-03T14:05:01.748Z,49.71
2018-06-03T14:07:30.131Z,48.83
2018-06-03T14:09:58.450Z,47.57
2018-06-03T14:12:26.815Z,49.19
2018-06-03T14:14:55.347Z,45.44
2018-06-03T14:17:23.805Z,42.98
2018-06-03T14:19:52.085Z,41.14
2018-06-03T14:22:20.439Z,42.07
2018-06-03T14:24:48.899Z,45.09
2018-06-03T14:27:17.313Z,46.02
2018-06-03T14:29:45.707Z,45.54
2018-06-03T14:32:14.030Z,47.79
2018-06-03T14:34:42.386Z,47.91
2018-06-03T14:37:10.672Z,49.03
2018-06-03T14:39:39.006Z,46.50
2018-06-03T14:42:07.246Z,43.96
2018-06-03T14:44:35.554Z,44.84
2018-06-03T14:47:03.908Z,46.86
2018-06-03T14:49:32.214Z,46.48
2018-06-03T14:52:00.498Z,47.15
2018-06-03T14:54:28.907Z,46.85
2018-06-03T14:56:57.439Z,48.04
2018-06-03T14:59:25.713Z,49.00
2018-06-03T15:01:54.026Z,46.50
2018-06-03T15:04:22.366Z,46.77
2018-06-03T15:06:50.627Z,46.74
2018-06-03T15:09:19.007Z,46.67
2018-06-03T15:11:47.268Z,43.80
2018-06-03T15:14:15.587Z,43.97
2018-06-03T15:16:43.893Z,43.85
2018-06-03T15:19:12.298Z,44.43
2018-06-03T15:21:40.629Z,47.01
2018-06-03T15:24:08.937Z,48.36
2018-06-03T15:26:37.319Z,49.62
2018-06-03T15:29:05.682Z,49.22
2018-06-03T15:31:33.938Z,49.65
2018-06-03T15:34:02.294Z,49.24
2018-06-03T15:36:30.668Z,50.25
2018-06-03T15:38:59.014Z,50.04
2018-06-03T15:41:27.326Z,49.62
2018-06-03T15:43:55.711Z,50.62
2018-06-03T15:46:24.009Z,52.00
2018-06-03T15:48:52.353Z,50.44
2018-06-03T15:51:20.670Z,50.23
2018-06-03T15:53:49.015Z,50.64
2018-06-03T15:56:17.327Z,50.65
2018-06-03T15:58:45.640Z,48.43
2018-06-03T16:01:14.020Z,48.32
2018-06-03T16:03:42.277Z,48.05
2018-06-03T16:06:10.631Z,48.39
2018-06-03T16:08:38.961Z,47.68
2018-06-03T16:11:07.366Z,47.89
2018-06-03T16:13:35.764Z,48.39
2018-06-03T16:16:04.672Z,49.03
2018-06-03T16:18:33.307Z,47.91
2018-06-03T16:21:02.758Z,49.11
2018-06-03T16:23:31.193Z,47.01
2018-06-03T16:25:59.956Z,48.32
2018-06-03T16:28:28.289Z,47.24
2018-06-03T16:30:56.617Z,48.10
2018-06-03T16:33:25.020Z,48.64
2018-06-03T16:35:53.379Z,46.59
2018-06-03T16:38:21.717Z,47.84
2018-06-03T16:40:56.369Z,47.63
2018-06-03T16:43:24.952Z,48.25
2018-06-03T16:45:53.342Z,47.07
2018-06-03T16:48:21.642Z,48.02
2018-06-03T16:50:49.992Z,48.08
2018-06-03T16:53:18.357Z,46.15
2018-06-03T16:55:46.631Z,46.10
2018-06-03T16:58:15.030Z,45.34
2018-06-03T17:00:43.721Z,46.61
2018-06-03T17:03:12.062Z,45.12
2018-06-03T17:05:40.566Z,47.05
2018-06-03T17:08:08.886Z,47.37
2018-06-03T17:10:37.407Z,47.22
2018-06-03T17:13:06.089Z,45.19
2018-06-03T17:15:34.501Z,46.27
2018-06-03T17:18:02.816Z,43.68
2018-06-03T17:20:31.320Z,44.32
2018-06-03T17:22:59.595Z,42.78
2018-06-03T17:25:27.906Z,44.27
2018-06-03T17:27:56.218Z,43.85
2018-06-03T17:30:24.536Z,44.45
2018-06-03T17:32:53.014Z,42.92
2018-06-03T17:35:21.321Z,42.28
2018-06-03T17:37:49.634Z,41.15
2018-06-03T17:40:18.111Z,40.90
2018-06-03T17:42:46.542Z,40.87
2018-06-03T17:45:15.067Z,40.00
2018-06-03T17:47:45.742Z,38.36
2018-06-03T17:50:14.131Z,37.95
2018-06-03T17:52:42.549Z,36.58
2018-06-03T17:55:10.968Z,35.47
2018-06-03T17:57:39.297Z,34.63
2018-06-03T18:00:07.578Z,34.34
2018-06-03T18:02:36.423Z,33.54
2018-06-03T18:05:04.846Z,33.03
2018-06-03T18:07:33.225Z,32.57
2018-06-03T18:10:01.592Z,32.44
2018-06-03T18:12:29.983Z,32.26
2018-06-03T18:14:58.561Z,31.36
2018-06-03T18:17:26.852Z,31.59
2018-06-03T18:19:55.186Z,31.37
2018-06-03T18:22:23.649Z,31.31
2018-06-03T18:24:52.081Z,30.99
2018-06-03T18:27:20.436Z,30.75
2018-06-03T18:29:48.737Z,30.42
2018-06-03T18:32:17.141Z,30.44
2018-06-03T18:34:45.444Z,30.06
2018-06-03T18:37:13.803Z,29.68
2018-06-03T18:39:42.760Z,29.64
2018-06-03T18:42:11.104Z,29.27
2018-06-03T18:44:39.350Z,29.12
2018-06-03T18:47:07.698Z,28.89
2018-06-03T18:49:36.116Z,28.84
2018-06-03T18:52:04.396Z,28.70
2018-06-03T18:54:32.723Z,28.53
2018-06-03T18:57:01.040Z,28.50
2018-06-03T18:59:29.462Z,28.38
2018-06-03T19:01:57.796Z,28.11
2018-06-03T19:04:26.274Z,28.11
2018-06-03T19:06:54.748Z,27.89
2018-06-03T19:09:23.042Z,27.83
2018-06-03T19:11:51.598Z,27.71
2018-06-03T19:14:20.077Z,27.52
2018-06-03T19:16:48.572Z,27.47
2018-06-03T19:19:17.119Z,27.22
2018-06-03T19:21:45.544Z,27.02
2018-06-03T19:27:17.386Z,26.57
2018-06-03T19:29:45.765Z,26.37
2018-06-03T19:32:14.142Z,26.27
2018-06-03T19:34:42.592Z,26.12
2018-06-03T19:37:11.159Z,26.04
2018-06-03T19:39:39.486Z,25.92
2018-06-03T19:42:07.961Z,25.94
2018-06-03T19:44:36.444Z,25.88
2018-06-03T19:47:04.950Z,25.77
2018-06-03T19:49:33.273Z,25.66
2018-06-03T19:52:01.765Z,25.60
2018-06-03T19:54:30.167Z,25.60
2018-06-03T19:56:58.766Z,25.54
2018-06-03T19:59:27.961Z,25.39
2018-06-03T20:01:56.303Z,25.40
2018-06-03T20:04:24.803Z,25.33
2018-06-03T20:06:56.743Z,25.35
2018-06-03T20:09:25.840Z,25.25
2018-06-03T20:11:54.264Z,25.24
2018-06-03T20:14:22.618Z,25.05
2018-06-03T20:16:51.120Z,25.01
2018-06-03T20:19:19.544Z,24.91
2018-06-03T20:21:47.848Z,24.90
2018-06-03T20:24:16.451Z,24.87
2018-06-03T20:26:44.774Z,24.81
2018-06-03T20:29:13.216Z,24.63
2018-06-03T20:31:42.351Z,24.48
2018-06-03T20:34:11.042Z,24.41
2018-06-03T20:36:39.488Z,24.33
2018-06-03T20:39:08.174Z,24.39
2018-06-03T20:41:36.474Z,24.54
2018-06-03T20:44:04.955Z,24.43
2018-06-03T20:46:33.259Z,24.10
2018-06-03T20:49:01.546Z,24.09
2018-06-03T20:51:29.860Z,24.25
2018-06-03T20:53:58.253Z,24.33
2018-06-03T20:56:26.668Z,24.27
2018-06-03T20:58:55.148Z,24.15
2018-06-03T21:01:23.497Z,24.00
2018-06-03T21:03:51.981Z,23.80
2018-06-03T21:06:20.525Z,23.67
2018-06-03T21:08:48.932Z,23.38
2018-06-03T21:11:17.440Z,23.24
2018-06-03T21:13:46.468Z,23.13
2018-06-03T21:16:14.898Z,23.21
2018-06-03T21:18:43.405Z,23.09
2018-06-03T21:21:11.845Z,23.05
2018-06-03T21:23:40.640Z,23.00
2018-06-03T21:26:13.637Z,22.96
2018-06-03T21:28:44.353Z,22.85
2018-06-03T21:31:14.337Z,22.77
2018-06-03T21:33:42.898Z,22.77
2018-06-03T21:36:11.368Z,22.76
2018-06-03T21:38:39.700Z,22.72
2018-06-03T21:41:08.034Z,22.64
2018-06-03T21:43:36.483Z,22.61
2018-06-03T21:46:04.896Z,22.72
2018-06-03T21:48:33.367Z,22.65
2018-06-03T21:51:02.029Z,22.75
2018-06-03T21:53:30.502Z,22.98
2018-06-03T21:55:58.857Z,22.79
2018-06-03T21:58:27.232Z,22.73
2018-06-03T22:00:55.739Z,22.80
2018-06-03T22:03:24.168Z,22.67
2018-06-03T22:05:52.665Z,22.68
2018-06-03T22:08:21.143Z,22.58
2018-06-03T22:10:49.617Z,22.46
2018-06-03T22:13:18.109Z,22.22
2018-06-03T22:15:46.623Z,22.16
2018-06-03T22:18:15.097Z,21.99
2018-06-03T22:20:43.707Z,21.91
2018-06-03T22:23:12.181Z,21.95
2018-06-03T22:25:41.044Z,21.76
2018-06-03T22:28:09.407Z,21.85
2018-06-03T22:33:42.026Z,21.52
2018-06-03T22:36:10.347Z,21.43
2018-06-03T22:38:38.799Z,21.44
2018-06-03T22:41:07.229Z,21.48
2018-06-03T22:43:35.655Z,21.42
2018-06-03T22:46:05.116Z,21.32
2018-06-03T22:48:33.530Z,21.21
2018-06-03T22:51:01.962Z,21.12
2018-06-03T22:53:30.438Z,21.08
2018-06-03T22:56:00.267Z,21.01
2018-06-03T22:58:30.035Z,20.90
2018-06-03T23:00:58.582Z,21.01
2018-06-03T23:03:27.217Z,21.11
2018-06-03T23:05:56.038Z,21.29
2018-06-03T23:08:27.733Z,21.35
2018-06-03T23:10:57.219Z,21.31
2018-06-03T23:13:25.748Z,21.21
2018-06-03T23:15:54.779Z,21.27
2018-06-03T23:18:29.579Z,21.17
2018-06-03T23:20:58.055Z,21.32
2018-06-03T23:23:26.503Z,21.15
2018-06-03T23:25:54.978Z,21.06
2018-06-03T23:28:23.328Z,20.90
2018-06-03T23:30:51.830Z,20.89
2018-06-03T23:33:20.423Z,20.87
2018-06-03T23:35:48.752Z,20.86
2018-06-03T23:38:17.252Z,20.78
2018-06-03T23:40:45.657Z,20.78
2018-06-03T23:43:14.015Z,20.72
2018-06-03T23:45:42.404Z,20.66
2018-06-03T23:48:10.952Z,20.83
2018-06-03T23:50:39.332Z,21.09
2018-06-03T23:53:07.784Z,21.08
2018-06-03T23:55:36.105Z,20.91
2018-06-03T23:58:04.483Z,20.83
